createdAt,value
2022-09-07T00:00:25.346Z,7.15
2022-09-07T00:02:56.625Z,7.09
2022-09-07T00:05:31.429Z,7.00
2022-09-07T00:08:01.039Z,7.00
2022-09-07T00:10:35.378Z,6.98
2022-09-07T00:13:04.715Z,7.00
2022-09-07T00:15:34.020Z,6.97
2022-09-07T00:18:05.234Z,6.85
2022-09-07T00:20:34.442Z,6.91
2022-09-07T00:23:03.584Z,6.82
2022-09-07T00:25:37.929Z,6.84
2022-09-07T00:28:12.228Z,6.83
2022-09-07T00:30:49.260Z,6.68
2022-09-07T00:33:21.908Z,6.74
2022-09-07T00:35:51.329Z,6.72
2022-09-07T00:38:25.610Z,6.79
2022-09-07T00:40:55.091Z,6.85
2022-09-07T00:43:33.709Z,6.88
2022-09-07T00:46:09.889Z,6.83
2022-09-07T00:48:45.081Z,6.87
2022-09-07T00:51:19.470Z,6.86
2022-09-07T00:53:54.001Z,6.88
2022-09-07T00:56:35.035Z,6.90
2022-09-07T00:59:04.701Z,6.78
2022-09-07T01:01:35.090Z,6.88
2022-09-07T01:04:08.530Z,6.87
2022-09-07T01:06:39.334Z,6.86
2022-09-07T01:09:15.265Z,6.87
2022-09-07T01:11:50.444Z,6.87
2022-09-07T01:14:21.993Z,6.84
2022-09-07T01:20:06.071Z,6.93
2022-09-07T01:22:56.102Z,6.92
2022-09-07T01:25:48.030Z,6.93
2022-09-07T01:28:27.580Z,6.91
2022-09-07T01:30:59.572Z,6.79
2022-09-07T01:33:48.974Z,6.90
2022-09-07T01:36:31.599Z,6.85
2022-09-07T01:39:08.535Z,6.78
2022-09-07T01:41:44.125Z,6.79
2022-09-07T01:44:23.603Z,6.79
2022-09-07T01:46:59.225Z,6.74
2022-09-07T01:49:32.333Z,6.73
2022-09-07T01:52:07.605Z,6.78
2022-09-07T01:54:43.105Z,6.73
2022-09-07T01:57:18.639Z,6.72
2022-09-07T01:59:55.325Z,6.67
2022-09-07T02:02:35.029Z,6.48
2022-09-07T02:05:08.013Z,6.55
2022-09-07T02:07:41.950Z,6.51
2022-09-07T02:10:14.714Z,6.47
2022-09-07T02:12:49.540Z,6.46
2022-09-07T02:15:26.077Z,6.42
2022-09-07T02:18:01.453Z,6.35
2022-09-07T02:20:35.226Z,6.34
2022-09-07T02:23:20.933Z,6.37
2022-09-07T02:25:55.790Z,6.39
2022-09-07T02:28:29.625Z,6.40
2022-09-07T02:31:01.663Z,6.36
2022-09-07T02:33:31.386Z,6.49
2022-09-07T02:36:01.292Z,6.42
2022-09-07T02:38:37.186Z,6.29
2022-09-07T02:41:07.008Z,6.39
2022-09-07T02:43:36.399Z,6.37
2022-09-07T02:46:22.272Z,6.43
2022-09-07T02:49:04.554Z,6.46
2022-09-07T02:51:54.986Z,6.41
2022-09-07T02:54:41.774Z,6.51
2022-09-07T02:57:22.944Z,6.50
2022-09-07T03:00:05.143Z,6.48
2022-09-07T03:02:45.433Z,6.47
2022-09-07T03:05:21.715Z,6.48
2022-09-07T03:07:56.957Z,6.46
2022-09-07T03:10:26.194Z,6.45
2022-09-07T03:13:00.823Z,6.49
2022-09-07T03:15:30.628Z,6.52
2022-09-07T03:18:01.845Z,6.55
2022-09-07T03:20:37.418Z,6.56
2022-09-07T03:23:06.605Z,6.56
2022-09-07T03:25:35.916Z,6.64
2022-09-07T03:28:06.086Z,6.69
2022-09-07T03:30:48.235Z,6.75
2022-09-07T03:33:22.399Z,6.82
2022-09-07T03:36:01.198Z,6.89
2022-09-07T03:38:33.051Z,6.97
2022-09-07T03:41:12.422Z,7.07
2022-09-07T03:43:41.742Z,7.07
2022-09-07T03:46:11.897Z,7.10
2022-09-07T03:48:43.191Z,7.14
2022-09-07T03:51:12.948Z,7.12
2022-09-07T03:53:44.250Z,7.17
2022-09-07T03:56:15.721Z,7.24
2022-09-07T03:58:52.293Z,7.28
2022-09-07T04:01:24.315Z,7.34
2022-09-07T04:04:04.269Z,7.41
2022-09-07T04:06:34.016Z,7.40
2022-09-07T04:09:09.184Z,7.40
2022-09-07T04:11:38.716Z,7.35
2022-09-07T04:14:08.632Z,7.42
2022-09-07T04:16:45.084Z,7.46
2022-09-07T04:19:16.394Z,7.49
2022-09-07T04:21:46.287Z,7.44
2022-09-07T04:24:16.674Z,7.46
2022-09-07T04:26:51.093Z,7.42
2022-09-07T04:29:20.402Z,7.37
2022-09-07T04:31:49.599Z,7.27
2022-09-07T04:34:20.771Z,7.15
2022-09-07T04:36:54.179Z,7.11
2022-09-07T04:39:23.421Z,7.04
2022-09-07T04:41:52.557Z,6.99
2022-09-07T04:44:27.270Z,6.97
2022-09-07T04:46:56.659Z,6.95
2022-09-07T04:52:03.927Z,7.03
2022-09-07T04:54:33.145Z,7.07
2022-09-07T04:57:21.314Z,7.33
2022-09-07T04:59:55.800Z,7.53
2022-09-07T05:02:25.102Z,7.68
2022-09-07T05:04:59.461Z,7.76
2022-09-07T05:07:32.285Z,7.87
2022-09-07T05:10:01.496Z,8.05
2022-09-07T05:12:32.317Z,8.17
2022-09-07T05:15:01.633Z,8.50
2022-09-07T05:17:33.059Z,8.60
2022-09-07T05:20:05.170Z,8.68
2022-09-07T05:22:35.254Z,8.95
2022-09-07T05:25:04.494Z,9.24
2022-09-07T05:27:33.945Z,9.56
2022-09-07T05:30:04.445Z,9.72
2022-09-07T05:32:36.278Z,9.85
2022-09-07T05:35:08.254Z,9.94
2022-09-07T05:37:42.866Z,9.85
2022-09-07T05:40:14.440Z,9.72
2022-09-07T05:42:43.920Z,9.76
2022-09-07T05:45:13.955Z,9.79
2022-09-07T05:47:43.093Z,9.73
2022-09-07T05:50:19.388Z,9.96
2022-09-07T05:52:48.906Z,9.76
2022-09-07T05:55:29.949Z,9.91
2022-09-07T05:58:00.036Z,10.33
2022-09-07T06:00:29.444Z,10.57
2022-09-07T06:03:03.790Z,10.52
2022-09-07T06:05:35.228Z,10.56
2022-09-07T06:08:05.481Z,10.99
2022-09-07T06:13:12.348Z,12.22
2022-09-07T06:15:41.801Z,12.13
2022-09-07T06:18:11.189Z,11.82
2022-09-07T06:20:42.582Z,11.82
2022-09-07T06:23:11.906Z,11.74
2022-09-07T06:25:50.385Z,11.63
2022-09-07T06:28:20.083Z,11.31
2022-09-07T06:30:49.168Z,10.93
2022-09-07T06:33:22.030Z,10.88
2022-09-07T06:36:00.009Z,10.74
2022-09-07T06:38:32.387Z,10.75
2022-09-07T06:43:56.233Z,10.67
2022-09-07T06:49:21.328Z,10.76
2022-09-07T06:51:52.386Z,10.51
2022-09-07T06:57:21.090Z,10.17
2022-09-07T06:59:55.309Z,10.04
2022-09-07T07:02:24.746Z,10.12
2022-09-07T07:04:53.881Z,10.23
2022-09-07T07:07:30.048Z,10.35
2022-09-07T07:09:59.323Z,10.37
2022-09-07T07:15:00.030Z,10.81
2022-09-07T07:17:29.361Z,11.04
2022-09-07T07:20:03.864Z,11.21
2022-09-07T07:22:48.170Z,11.21
2022-09-07T07:25:18.529Z,11.35
2022-09-07T07:27:52.934Z,11.66
2022-09-07T07:30:23.553Z,11.85
2022-09-07T07:32:58.479Z,11.78
2022-09-07T07:35:27.713Z,11.78
2022-09-07T07:43:44.902Z,12.32
2022-09-07T07:46:15.498Z,12.10
2022-09-07T07:48:50.118Z,12.07
2022-09-07T07:51:19.308Z,12.23
2022-09-07T07:53:50.426Z,12.53
2022-09-07T07:56:24.848Z,12.83
2022-09-07T07:58:54.274Z,13.06
2022-09-07T08:01:23.737Z,13.14
2022-09-07T08:03:53.385Z,13.20
2022-09-07T08:06:27.794Z,13.19
2022-09-07T08:08:59.099Z,13.04
2022-09-07T08:11:30.095Z,13.07
2022-09-07T08:14:01.127Z,13.31
2022-09-07T08:16:30.471Z,13.32
2022-09-07T08:18:59.900Z,13.09
2022-09-07T08:21:29.475Z,12.67
2022-09-07T08:24:01.123Z,12.36
2022-09-07T08:26:35.251Z,12.68
2022-09-07T08:29:09.427Z,12.87
2022-09-07T08:31:48.913Z,13.09
2022-09-07T08:34:18.605Z,13.24
2022-09-07T08:36:47.805Z,13.22
2022-09-07T08:39:18.792Z,13.09
2022-09-07T08:42:11.544Z,13.02
2022-09-07T08:44:47.342Z,13.20
2022-09-07T08:47:25.255Z,13.35
2022-09-07T08:50:02.389Z,13.44
2022-09-07T08:52:44.511Z,13.66
2022-09-07T08:55:19.957Z,13.60
2022-09-07T08:57:54.458Z,13.60
2022-09-07T09:00:28.794Z,13.31
2022-09-07T09:06:03.085Z,13.28
2022-09-07T09:08:52.101Z,13.28
2022-09-07T09:11:29.889Z,13.42
2022-09-07T09:14:07.989Z,13.14
2022-09-07T09:16:43.342Z,12.91
2022-09-07T09:19:32.253Z,12.88
2022-09-07T09:22:13.290Z,13.02
2022-09-07T09:24:47.457Z,12.93
2022-09-07T09:27:18.719Z,12.99
2022-09-07T09:29:50.323Z,12.88
2022-09-07T09:32:32.728Z,13.06
2022-09-07T09:35:13.439Z,12.88
2022-09-07T09:37:48.090Z,12.75
2022-09-07T09:40:22.833Z,12.84
2022-09-07T09:43:04.871Z,12.97
2022-09-07T09:48:34.114Z,12.55
2022-09-07T09:54:05.747Z,12.62
2022-09-07T09:56:40.241Z,12.73
2022-09-07T10:05:35.057Z,13.43
2022-09-07T10:08:06.125Z,13.43
2022-09-07T10:10:35.752Z,13.34
2022-09-07T10:13:08.312Z,13.28
2022-09-07T10:15:44.662Z,13.49
2022-09-07T10:18:23.035Z,13.63
2022-09-07T10:20:52.373Z,13.72
2022-09-07T10:23:25.440Z,13.66
2022-09-07T10:25:59.645Z,13.40
2022-09-07T10:29:06.382Z,13.40
2022-09-07T10:31:27.270Z,13.50
2022-09-07T10:37:03.819Z,13.61
2022-09-07T10:39:37.789Z,13.55
2022-09-07T10:42:24.758Z,13.57
2022-09-07T10:45:10.566Z,13.76
2022-09-07T10:47:53.385Z,13.91
2022-09-07T10:50:30.583Z,14.13
2022-09-07T10:53:39.760Z,14.49
2022-09-07T10:56:10.697Z,14.51
2022-09-07T10:59:04.691Z,14.40
2022-09-07T11:01:45.968Z,13.78
2022-09-07T11:04:34.687Z,13.85
2022-09-07T11:07:20.578Z,13.89
2022-09-07T11:10:00.853Z,13.83
2022-09-07T11:12:35.433Z,13.71
2022-09-07T11:15:17.709Z,13.39
2022-09-07T11:17:56.905Z,13.23
2022-09-07T11:20:33.256Z,12.82
2022-09-07T11:23:16.401Z,12.54
2022-09-07T11:25:54.064Z,12.26
2022-09-07T11:28:28.700Z,12.00
2022-09-07T11:31:02.682Z,11.77
2022-09-07T11:33:37.346Z,11.48
2022-09-07T11:36:16.946Z,11.24
2022-09-07T11:38:51.752Z,11.09
2022-09-07T11:41:26.091Z,11.03
2022-09-07T11:44:04.758Z,11.08
2022-09-07T11:46:40.437Z,10.95
2022-09-07T11:49:18.658Z,10.93
2022-09-07T11:51:54.691Z,10.67
2022-09-07T11:54:50.338Z,10.71
2022-09-07T11:57:38.521Z,10.42
2022-09-07T12:00:18.681Z,10.15
2022-09-07T12:03:25.924Z,10.05
2022-09-07T12:06:21.941Z,9.89
2022-09-07T12:09:11.451Z,9.85
2022-09-07T12:12:07.735Z,9.88
2022-09-07T12:14:51.220Z,9.88
2022-09-07T12:17:37.263Z,9.82
2022-09-07T12:20:17.561Z,9.89
2022-09-07T12:23:07.305Z,9.96
2022-09-07T12:25:38.705Z,9.93
2022-09-07T12:28:18.644Z,9.92
2022-09-07T12:31:02.047Z,9.86
2022-09-07T12:33:38.949Z,9.92
2022-09-07T12:36:50.970Z,9.99
2022-09-07T12:39:25.017Z,9.96
2022-09-07T12:42:37.953Z,10.12
2022-09-07T12:45:39.917Z,10.27
2022-09-07T12:48:25.097Z,10.31
2022-09-07T12:57:30.407Z,9.88
2022-09-07T13:00:14.408Z,9.76
2022-09-07T13:07:01.631Z,9.50
2022-09-07T13:12:53.375Z,9.30
2022-09-07T13:15:46.729Z,9.27
2022-09-07T13:18:44.265Z,9.19
2022-09-07T13:21:34.579Z,9.22
2022-09-07T13:24:46.264Z,9.21
2022-09-07T13:27:46.542Z,9.24
2022-09-07T13:30:33.205Z,9.28
2022-09-07T13:33:37.452Z,9.29
2022-09-07T13:36:08.134Z,9.24
2022-09-07T13:38:38.560Z,9.24
2022-09-07T13:41:14.373Z,9.35
2022-09-07T13:43:48.834Z,9.40
2022-09-07T13:46:40.550Z,9.44
2022-09-07T13:49:25.126Z,9.39
2022-09-07T13:52:00.959Z,9.37
2022-09-07T13:54:55.961Z,9.34
2022-09-07T13:57:33.729Z,9.27
2022-09-07T14:00:11.775Z,9.25
2022-09-07T14:02:42.499Z,9.21
2022-09-07T14:05:13.984Z,9.23
2022-09-07T14:07:49.217Z,9.28
2022-09-07T14:10:21.860Z,9.24
2022-09-07T14:12:53.864Z,9.26
2022-09-07T14:15:35.034Z,9.20
2022-09-07T14:18:07.324Z,9.17
2022-09-07T14:20:42.483Z,9.12
2022-09-07T14:23:24.606Z,9.13
2022-09-07T14:26:17.727Z,9.12
2022-09-07T14:28:49.886Z,9.05
2022-09-07T14:31:22.987Z,9.06
2022-09-07T14:33:55.491Z,9.01
2022-09-07T14:36:44.039Z,8.99
2022-09-07T14:39:22.743Z,9.03
2022-09-07T14:41:52.735Z,9.06
2022-09-07T14:44:33.279Z,9.16
2022-09-07T14:47:10.481Z,9.20
2022-09-07T14:49:39.732Z,9.27
2022-09-07T14:52:09.139Z,9.33
2022-09-07T14:54:43.486Z,9.23
2022-09-07T14:57:35.045Z,9.45
2022-09-07T15:00:23.026Z,9.54
2022-09-07T15:02:54.179Z,9.53
2022-09-07T15:05:31.937Z,9.50
2022-09-07T15:08:02.344Z,9.40
2022-09-07T15:10:40.325Z,9.36
2022-09-07T15:13:27.293Z,9.30
2022-09-07T15:16:06.034Z,9.28
2022-09-07T15:18:54.180Z,9.26
2022-09-07T15:21:24.953Z,9.22
2022-09-07T15:23:55.560Z,9.19
2022-09-07T15:29:24.201Z,9.22
2022-09-07T15:32:02.433Z,9.18
2022-09-07T15:34:37.552Z,9.14
2022-09-07T15:38:01.029Z,9.13
2022-09-07T15:39:58.421Z,9.05
2022-09-07T15:45:17.099Z,9.08
2022-09-07T15:47:51.103Z,9.03
2022-09-07T15:50:23.392Z,9.03
2022-09-07T15:53:00.772Z,9.03
2022-09-07T15:55:30.200Z,8.99
2022-09-07T15:58:11.001Z,8.97
2022-09-07T16:00:41.060Z,8.97
2022-09-07T16:03:10.261Z,8.93
2022-09-07T16:05:44.413Z,8.94
2022-09-07T16:08:38.571Z,8.87
2022-09-07T16:11:18.299Z,8.78
2022-09-07T16:13:48.961Z,8.85
2022-09-07T16:16:18.386Z,8.80
2022-09-07T16:18:52.864Z,8.74
2022-09-07T16:21:26.317Z,8.67
2022-09-07T16:23:56.547Z,8.66
2022-09-07T16:26:27.084Z,8.63
2022-09-07T16:28:56.461Z,8.58
2022-09-07T16:31:27.924Z,8.54
2022-09-07T16:36:34.411Z,8.59
2022-09-07T16:39:03.979Z,8.49
2022-09-07T16:41:34.527Z,8.59
2022-09-07T16:44:04.251Z,8.55
2022-09-07T16:46:39.901Z,8.45
2022-09-07T16:49:09.265Z,8.56
2022-09-07T16:51:46.387Z,8.38
2022-09-07T16:54:16.661Z,8.54
2022-09-07T16:56:45.908Z,8.54
2022-09-07T16:59:19.811Z,8.55
2022-09-07T17:01:54.295Z,8.59
2022-09-07T17:04:28.696Z,8.60
2022-09-07T17:07:00.149Z,8.65
2022-09-07T17:09:35.380Z,8.64
2022-09-07T17:12:05.255Z,8.62
2022-09-07T17:14:34.370Z,8.64
2022-09-07T17:17:03.618Z,8.66
2022-09-07T17:19:33.034Z,8.66
2022-09-07T17:22:07.200Z,8.68
2022-09-07T17:24:38.306Z,8.69
2022-09-07T17:27:08.314Z,8.69
2022-09-07T17:29:37.786Z,8.71
2022-09-07T17:32:24.432Z,8.68
2022-09-07T17:34:56.147Z,8.72
2022-09-07T17:37:27.260Z,8.76
2022-09-07T17:45:21.391Z,8.80
2022-09-07T17:47:50.610Z,8.81
2022-09-07T17:50:24.827Z,8.76
2022-09-07T17:52:56.613Z,8.82
2022-09-07T17:55:31.617Z,8.77
2022-09-07T17:58:04.555Z,8.77
2022-09-07T18:00:39.790Z,8.76
2022-09-07T18:03:08.889Z,8.74
2022-09-07T18:05:37.950Z,8.76
2022-09-07T18:08:15.782Z,8.67
2022-09-07T18:13:36.619Z,8.73
2022-09-07T18:16:13.817Z,8.66
2022-09-07T18:18:43.246Z,8.64
2022-09-07T18:21:15.219Z,8.61
2022-09-07T18:23:46.677Z,8.62
2022-09-07T18:26:16.171Z,8.42
2022-09-07T18:31:38.376Z,8.51
2022-09-07T18:34:12.446Z,8.40
2022-09-07T18:36:43.929Z,8.13
2022-09-07T18:39:20.567Z,7.99
2022-09-07T18:41:50.001Z,7.81
2022-09-07T18:47:16.120Z,7.58
2022-09-07T18:49:55.272Z,7.51
2022-09-07T18:55:20.798Z,7.48
2022-09-07T18:57:50.167Z,7.44
2022-09-07T19:00:19.345Z,7.41
2022-09-07T19:02:56.860Z,7.37
2022-09-07T19:08:15.448Z,7.12
2022-09-07T19:10:46.759Z,7.18
2022-09-07T19:13:16.327Z,7.07
2022-09-07T19:15:50.498Z,7.08
2022-09-07T19:18:20.887Z,7.02
2022-09-07T19:20:50.425Z,6.98
2022-09-07T19:23:20.311Z,6.93
2022-09-07T19:26:03.243Z,6.91
2022-09-07T19:28:32.476Z,6.94
2022-09-07T19:31:09.286Z,6.86
2022-09-07T19:33:43.237Z,7.10
2022-09-07T19:36:12.654Z,7.04
2022-09-07T19:38:42.078Z,7.05
2022-09-07T19:41:13.668Z,7.11
2022-09-07T19:43:42.810Z,7.22
2022-09-07T19:46:13.525Z,7.33
2022-09-07T19:48:48.614Z,7.36
2022-09-07T19:51:19.465Z,7.32
2022-09-07T19:53:54.361Z,7.32
2022-09-07T19:56:25.893Z,7.39
2022-09-07T19:59:02.209Z,7.44
2022-09-07T20:01:31.795Z,7.41
2022-09-07T20:04:03.253Z,7.35
2022-09-07T20:06:34.157Z,7.34
2022-09-07T20:09:04.341Z,7.30
2022-09-07T20:11:35.898Z,7.29
2022-09-07T20:14:05.505Z,7.32
2022-09-07T20:16:37.658Z,7.39
2022-09-07T20:19:13.440Z,7.45
2022-09-07T20:21:55.663Z,7.54
2022-09-07T20:24:24.764Z,7.54
2022-09-07T20:26:55.701Z,7.59
2022-09-07T20:29:29.014Z,7.65
2022-09-07T20:32:00.635Z,7.70
2022-09-07T20:34:30.776Z,7.71
2022-09-07T20:37:00.756Z,7.74
2022-09-07T20:39:29.847Z,7.77
2022-09-07T20:42:06.295Z,7.83
2022-09-07T20:44:35.424Z,7.82
2022-09-07T20:47:05.204Z,7.81
2022-09-07T20:49:34.536Z,7.81
2022-09-07T20:52:03.993Z,7.76
2022-09-07T20:54:33.575Z,7.86
2022-09-07T20:57:08.040Z,7.90
2022-09-07T20:59:44.183Z,7.92
2022-09-07T21:02:13.503Z,7.93
2022-09-07T21:04:43.390Z,7.94
2022-09-07T21:07:12.733Z,7.96
2022-09-07T21:09:42.014Z,7.93
2022-09-07T21:12:11.123Z,7.88
2022-09-07T21:14:40.144Z,7.82
2022-09-07T21:17:11.541Z,7.83
2022-09-07T21:19:40.718Z,7.78
2022-09-07T21:22:09.778Z,7.69
2022-09-07T21:24:39.012Z,7.75
2022-09-07T21:27:08.642Z,7.77
2022-09-07T21:29:37.711Z,7.81
2022-09-07T21:32:07.035Z,7.81
2022-09-07T21:34:38.242Z,7.86
2022-09-07T21:37:12.487Z,7.78
2022-09-07T21:39:41.710Z,7.87
2022-09-07T21:42:10.866Z,7.83
2022-09-07T21:44:39.920Z,7.78
2022-09-07T21:47:09.066Z,7.72
2022-09-07T21:49:40.157Z,7.69
2022-09-07T21:52:14.214Z,7.70
2022-09-07T21:54:43.922Z,7.80
2022-09-07T21:57:13.261Z,7.86
2022-09-07T21:59:42.238Z,7.87
2022-09-07T22:02:11.357Z,7.89
2022-09-07T22:04:42.529Z,7.92
2022-09-07T22:07:14.363Z,7.94
2022-09-07T22:09:43.549Z,7.97
2022-09-07T22:12:12.513Z,7.95
2022-09-07T22:14:41.663Z,7.95
2022-09-07T22:17:10.739Z,7.93
2022-09-07T22:19:42.569Z,7.84
2022-09-07T22:22:17.170Z,7.98
2022-09-07T22:24:46.403Z,7.97
2022-09-07T22:27:15.441Z,8.01
2022-09-07T22:29:44.548Z,7.98
2022-09-07T22:32:13.654Z,8.00
2022-09-07T22:34:44.790Z,8.02
2022-09-07T22:37:14.020Z,8.03
2022-09-07T22:39:43.051Z,8.09
2022-09-07T22:42:12.327Z,8.11
2022-09-07T22:44:41.386Z,8.14
2022-09-07T22:47:11.799Z,8.17
2022-09-07T22:49:53.171Z,8.16
2022-09-07T22:52:22.406Z,8.18
2022-09-07T22:54:51.470Z,8.24
2022-09-07T22:57:20.676Z,8.23
2022-09-07T22:59:49.682Z,8.23
2022-09-07T23:02:19.028Z,8.20
2022-09-07T23:04:50.087Z,8.23
2022-09-07T23:07:19.486Z,8.22
2022-09-07T23:09:48.776Z,8.18
2022-09-07T23:12:18.036Z,8.17
2022-09-07T23:14:48.076Z,8.11
2022-09-07T23:17:22.557Z,8.08
2022-09-07T23:19:53.608Z,8.07
2022-09-07T23:25:02.722Z,8.00
2022-09-07T23:27:33.183Z,8.05
2022-09-07T23:30:02.289Z,8.07
2022-09-07T23:32:32.129Z,8.06
2022-09-07T23:35:03.740Z,8.07
2022-09-07T23:37:33.716Z,8.11
2022-09-07T23:40:02.813Z,8.05
2022-09-07T23:42:32.287Z,8.02
2022-09-07T23:45:01.254Z,8.05
2022-09-07T23:47:35.358Z,8.15
2022-09-07T23:50:07.167Z,8.12
2022-09-07T23:52:36.881Z,8.26
2022-09-07T23:55:06.668Z,8.17
2022-09-07T23:57:35.875Z,8.18
